sensor_id;sensor_type;location;lat;lon;timestamp;P1;durP1;ratioP1;P2;durP2;ratioP2
19262;SDS011;9765;52.354;20.884;2022-09-24T05:24:25;22.03;;;10.20;;
19262;SDS011;9765;52.354;20.884;2022-09-24T05:26:52;35.37;;;14.07;;
19262;SDS011;9765;52.354;20.884;2022-09-24T05:29:34;29.53;;;14.13;;
19262;SDS011;9765;52.354;20.884;2022-09-24T05:32:01;35.53;;;15.83;;
19262;SDS011;9765;52.354;20.884;2022-09-24T05:34:30;36.87;;;15.83;;
19262;SDS011;9765;52.354;20.884;2022-09-24T05:36:57;38.47;;;17.27;;
19262;SDS011;9765;52.354;20.884;2022-09-24T05:39:26;36.83;;;16.37;;
19262;SDS011;9765;52.354;20.884;2022-09-24T05:41:53;34.33;;;16.00;;
19262;SDS011;9765;52.354;20.884;2022-09-24T05:44:20;27.03;;;14.07;;
19262;SDS011;9765;52.354;20.884;2022-09-24T05:46:46;31.83;;;16.13;;
19262;SDS011;9765;52.354;20.884;2022-09-24T05:49:13;34.23;;;16.20;;
19262;SDS011;9765;52.354;20.884;2022-09-24T05:51:40;36.70;;;16.10;;
19262;SDS011;9765;52.354;20.884;2022-09-24T05:54:07;55.37;;;19.53;;
19262;SDS011;9765;52.354;20.884;2022-09-24T05:56:35;41.87;;;18.93;;
19262;SDS011;9765;52.354;20.884;2022-09-24T05:59:02;43.50;;;19.17;;
19262;SDS011;9765;52.354;20.884;2022-09-24T06:01:29;43.87;;;21.63;;
19262;SDS011;9765;52.354;20.884;2022-09-24T06:03:56;43.87;;;20.83;;
19262;SDS011;9765;52.354;20.884;2022-09-24T06:06:23;49.93;;;23.73;;
19262;SDS011;9765;52.354;20.884;2022-09-24T06:08:51;49.87;;;25.93;;
19262;SDS011;9765;52.354;20.884;2022-09-24T06:11:18;50.83;;;23.57;;
19262;SDS011;9765;52.354;20.884;2022-09-24T06:13:47;46.47;;;24.13;;
19262;SDS011;9765;52.354;20.884;2022-09-24T06:16:19;47.17;;;23.80;;
19262;SDS011;9765;52.354;20.884;2022-09-24T06:18:45;44.97;;;22.43;;
19262;SDS011;9765;52.354;20.884;2022-09-24T06:21:13;43.50;;;22.30;;
19262;SDS011;9765;52.354;20.884;2022-09-24T06:23:41;40.03;;;20.73;;
19262;SDS011;9765;52.354;20.884;2022-09-24T06:26:12;43.17;;;21.37;;
19262;SDS011;9765;52.354;20.884;2022-09-24T06:28:42;81.10;;;23.17;;
19262;SDS011;9765;52.354;20.884;2022-09-24T06:31:10;41.00;;;21.37;;
19262;SDS011;9765;52.354;20.884;2022-09-24T06:33:37;43.10;;;21.77;;
19262;SDS011;9765;52.354;20.884;2022-09-24T06:36:04;46.10;;;21.57;;
19262;SDS011;9765;52.354;20.884;2022-09-24T06:38:31;37.30;;;19.97;;
19262;SDS011;9765;52.354;20.884;2022-09-24T06:40:59;40.70;;;21.20;;
19262;SDS011;9765;52.354;20.884;2022-09-24T06:43:30;38.57;;;20.77;;
19262;SDS011;9765;52.354;20.884;2022-09-24T06:45:58;42.57;;;21.47;;
19262;SDS011;9765;52.354;20.884;2022-09-24T06:48:27;41.40;;;21.73;;
19262;SDS011;9765;52.354;20.884;2022-09-24T06:50:55;40.30;;;21.03;;
19262;SDS011;9765;52.354;20.884;2022-09-24T06:53:22;35.43;;;19.60;;
19262;SDS011;9765;52.354;20.884;2022-09-24T06:55:49;38.23;;;20.77;;
19262;SDS011;9765;52.354;20.884;2022-09-24T06:58:16;52.80;;;20.87;;
19262;SDS011;9765;52.354;20.884;2022-09-24T07:00:49;57.87;;;19.80;;
19262;SDS011;9765;52.354;20.884;2022-09-24T07:03:18;41.03;;;19.13;;
19262;SDS011;9765;52.354;20.884;2022-09-24T07:05:47;35.97;;;19.40;;
19262;SDS011;9765;52.354;20.884;2022-09-24T07:08:13;36.93;;;19.30;;
19262;SDS011;9765;52.354;20.884;2022-09-24T07:10:41;34.53;;;19.77;;
19262;SDS011;9765;52.354;20.884;2022-09-24T07:13:08;36.73;;;21.47;;
19262;SDS011;9765;52.354;20.884;2022-09-24T07:15:36;40.90;;;21.00;;
19262;SDS011;9765;52.354;20.884;2022-09-24T07:18:02;36.40;;;20.63;;
19262;SDS011;9765;52.354;20.884;2022-09-24T07:20:29;41.37;;;22.07;;
19262;SDS011;9765;52.354;20.884;2022-09-24T07:22:58;36.43;;;19.33;;
19262;SDS011;9765;52.354;20.884;2022-09-24T07:25:25;32.07;;;19.70;;
19262;SDS011;9765;52.354;20.884;2022-09-24T07:27:51;36.00;;;18.17;;
19262;SDS011;9765;52.354;20.884;2022-09-24T07:30:18;32.50;;;18.20;;
19262;SDS011;9765;52.354;20.884;2022-09-24T07:32:45;26.10;;;15.07;;
19262;SDS011;9765;52.354;20.884;2022-09-24T07:35:12;30.57;;;15.63;;
19262;SDS011;9765;52.354;20.884;2022-09-24T07:37:39;28.73;;;14.33;;
19262;SDS011;9765;52.354;20.884;2022-09-24T07:40:07;21.40;;;12.97;;
19262;SDS011;9765;52.354;20.884;2022-09-24T07:42:44;27.13;;;13.17;;
19262;SDS011;9765;52.354;20.884;2022-09-24T07:45:12;30.27;;;13.20;;
19262;SDS011;9765;52.354;20.884;2022-09-24T07:47:39;27.03;;;12.67;;
19262;SDS011;9765;52.354;20.884;2022-09-24T07:50:06;20.00;;;11.00;;
19262;SDS011;9765;52.354;20.884;2022-09-24T07:52:33;29.27;;;9.70;;
19262;SDS011;9765;52.354;20.884;2022-09-24T07:55:00;14.33;;;7.60;;
19262;SDS011;9765;52.354;20.884;2022-09-24T07:57:28;17.07;;;9.07;;
19262;SDS011;9765;52.354;20.884;2022-09-24T07:59:55;12.23;;;7.00;;
19262;SDS011;9765;52.354;20.884;2022-09-24T08:02:22;78.63;;;10.57;;
19262;SDS011;9765;52.354;20.884;2022-09-24T08:04:49;14.30;;;7.33;;
19262;SDS011;9765;52.354;20.884;2022-09-24T08:07:15;22.07;;;7.40;;
19262;SDS011;9765;52.354;20.884;2022-09-24T08:09:42;20.43;;;8.60;;
19262;SDS011;9765;52.354;20.884;2022-09-24T08:12:09;15.73;;;7.63;;
19262;SDS011;9765;52.354;20.884;2022-09-24T08:14:38;15.30;;;8.23;;
19262;SDS011;9765;52.354;20.884;2022-09-24T08:17:05;60.37;;;9.17;;
19262;SDS011;9765;52.354;20.884;2022-09-24T08:19:32;16.13;;;8.63;;
19262;SDS011;9765;52.354;20.884;2022-09-24T08:21:59;13.73;;;7.33;;
19262;SDS011;9765;52.354;20.884;2022-09-24T08:24:26;15.40;;;8.33;;
19262;SDS011;9765;52.354;20.884;2022-09-24T08:26:52;19.27;;;8.30;;
19262;SDS011;9765;52.354;20.884;2022-09-24T08:29:19;18.73;;;8.47;;
19262;SDS011;9765;52.354;20.884;2022-09-24T08:31:47;11.80;;;7.23;;
19262;SDS011;9765;52.354;20.884;2022-09-24T08:34:14;15.43;;;8.47;;
19262;SDS011;9765;52.354;20.884;2022-09-24T08:36:40;24.43;;;8.20;;
19262;SDS011;9765;52.354;20.884;2022-09-24T08:39:10;12.90;;;7.33;;
19262;SDS011;9765;52.354;20.884;2022-09-24T08:41:49;101.47;;;12.13;;
19262;SDS011;9765;52.354;20.884;2022-09-24T08:44:21;16.27;;;7.03;;
19262;SDS011;9765;52.354;20.884;2022-09-24T08:47:13;14.83;;;6.30;;
19262;SDS011;9765;52.354;20.884;2022-09-24T08:49:50;13.43;;;6.20;;
19262;SDS011;9765;52.354;20.884;2022-09-24T08:52:25;13.07;;;6.00;;
19262;SDS011;9765;52.354;20.884;2022-09-24T08:55:11;10.73;;;5.73;;
19262;SDS011;9765;52.354;20.884;2022-09-24T08:57:47;10.00;;;5.23;;
19262;SDS011;9765;52.354;20.884;2022-09-24T09:00:19;10.00;;;5.30;;
19262;SDS011;9765;52.354;20.884;2022-09-24T09:02:48;11.70;;;5.27;;
19262;SDS011;9765;52.354;20.884;2022-09-24T09:05:22;7.93;;;4.60;;
19262;SDS011;9765;52.354;20.884;2022-09-24T09:07:58;19.20;;;5.17;;
19262;SDS011;9765;52.354;20.884;2022-09-24T09:10:28;20.50;;;4.60;;
19262;SDS011;9765;52.354;20.884;2022-09-24T09:12:59;28.03;;;4.43;;
19262;SDS011;9765;52.354;20.884;2022-09-24T09:15:32;7.13;;;3.80;;
19262;SDS011;9765;52.354;20.884;2022-09-24T09:18:09;9.33;;;3.43;;
19262;SDS011;9765;52.354;20.884;2022-09-24T09:20:40;6.60;;;3.20;;
19262;SDS011;9765;52.354;20.884;2022-09-24T09:23:11;8.20;;;3.93;;
19262;SDS011;9765;52.354;20.884;2022-09-24T09:25:41;5.73;;;3.07;;
19262;SDS011;9765;52.354;20.884;2022-09-24T09:28:16;43.70;;;4.77;;
19262;SDS011;9765;52.354;20.884;2022-09-24T09:30:45;4.30;;;2.87;;
19262;SDS011;9765;52.354;20.884;2022-09-24T09:33:29;19.50;;;3.17;;
19262;SDS011;9765;52.354;20.884;2022-09-24T09:36:27;3.27;;;2.37;;
19262;SDS011;9765;52.354;20.884;2022-09-24T09:39:03;13.50;;;2.80;;
19262;SDS011;9765;52.354;20.884;2022-09-24T09:41:44;5.57;;;2.60;;
19262;SDS011;9765;52.354;20.884;2022-09-24T09:44:17;3.33;;;2.37;;
19262;SDS011;9765;52.354;20.884;2022-09-24T09:46:52;3.13;;;2.10;;
19262;SDS011;9765;52.354;20.884;2022-09-24T09:49:26;3.23;;;1.97;;
19262;SDS011;9765;52.354;20.884;2022-09-24T09:51:58;3.37;;;2.27;;
19262;SDS011;9765;52.354;20.884;2022-09-24T09:54:34;4.07;;;2.10;;
19262;SDS011;9765;52.354;20.884;2022-09-24T09:57:02;7.73;;;1.97;;
19262;SDS011;9765;52.354;20.884;2022-09-24T09:59:32;6.73;;;2.43;;
19262;SDS011;9765;52.354;20.884;2022-09-24T10:02:00;9.13;;;2.40;;
19262;SDS011;9765;52.354;20.884;2022-09-24T10:04:34;5.93;;;2.20;;
19262;SDS011;9765;52.354;20.884;2022-09-24T10:07:05;16.10;;;2.57;;
19262;SDS011;9765;52.354;20.884;2022-09-24T10:09:33;29.10;;;2.83;;
19262;SDS011;9765;52.354;20.884;2022-09-24T10:12:07;3.37;;;1.77;;
19262;SDS011;9765;52.354;20.884;2022-09-24T10:14:39;5.30;;;2.13;;
19262;SDS011;9765;52.354;20.884;2022-09-24T10:17:05;3.77;;;1.60;;
19262;SDS011;9765;52.354;20.884;2022-09-24T10:19:38;7.17;;;1.70;;
19262;SDS011;9765;52.354;20.884;2022-09-24T10:22:09;5.20;;;1.87;;
19262;SDS011;9765;52.354;20.884;2022-09-24T10:24:42;3.80;;;2.10;;
19262;SDS011;9765;52.354;20.884;2022-09-24T10:27:09;6.10;;;2.70;;
19262;SDS011;9765;52.354;20.884;2022-09-24T10:29:37;5.47;;;2.47;;
19262;SDS011;9765;52.354;20.884;2022-09-24T10:32:22;5.90;;;2.40;;
19262;SDS011;9765;52.354;20.884;2022-09-24T10:34:55;16.50;;;2.80;;
19262;SDS011;9765;52.354;20.884;2022-09-24T10:37:23;142.80;;;8.03;;
19262;SDS011;9765;52.354;20.884;2022-09-24T10:39:57;8.93;;;2.83;;
19262;SDS011;9765;52.354;20.884;2022-09-24T10:42:25;5.50;;;2.47;;
19262;SDS011;9765;52.354;20.884;2022-09-24T10:44:53;3.83;;;2.10;;
19262;SDS011;9765;52.354;20.884;2022-09-24T10:47:25;5.03;;;2.13;;
19262;SDS011;9765;52.354;20.884;2022-09-24T10:50:02;13.43;;;2.60;;
19262;SDS011;9765;52.354;20.884;2022-09-24T10:52:43;7.37;;;2.60;;
19262;SDS011;9765;52.354;20.884;2022-09-24T10:55:15;5.90;;;2.13;;
19262;SDS011;9765;52.354;20.884;2022-09-24T10:57:51;3.60;;;2.00;;
19262;SDS011;9765;52.354;20.884;2022-09-24T11:00:27;3.50;;;1.70;;
19262;SDS011;9765;52.354;20.884;2022-09-24T11:03:25;7.53;;;1.90;;
19262;SDS011;9765;52.354;20.884;2022-09-24T11:06:07;7.47;;;2.10;;
19262;SDS011;9765;52.354;20.884;2022-09-24T11:08:50;3.60;;;1.90;;
19262;SDS011;9765;52.354;20.884;2022-09-24T11:11:32;4.53;;;2.40;;
19262;SDS011;9765;52.354;20.884;2022-09-24T11:14:12;4.50;;;2.10;;
19262;SDS011;9765;52.354;20.884;2022-09-24T11:16:49;4.63;;;2.00;;
19262;SDS011;9765;52.354;20.884;2022-09-24T11:19:42;6.80;;;2.23;;
19262;SDS011;9765;52.354;20.884;2022-09-24T11:22:22;4.80;;;2.50;;
19262;SDS011;9765;52.354;20.884;2022-09-24T11:25:03;4.10;;;2.10;;
19262;SDS011;9765;52.354;20.884;2022-09-24T11:30:34;6.73;;;2.20;;
19262;SDS011;9765;52.354;20.884;2022-09-24T11:33:15;50.87;;;4.23;;
19262;SDS011;9765;52.354;20.884;2022-09-24T11:36:08;5.80;;;2.30;;
19262;SDS011;9765;52.354;20.884;2022-09-24T11:38:56;5.87;;;2.20;;
19262;SDS011;9765;52.354;20.884;2022-09-24T11:41:37;4.70;;;2.43;;
19262;SDS011;9765;52.354;20.884;2022-09-24T11:44:20;3.63;;;1.87;;
19262;SDS011;9765;52.354;20.884;2022-09-24T11:47:01;5.90;;;2.40;;
19262;SDS011;9765;52.354;20.884;2022-09-24T11:49:44;4.77;;;2.70;;
19262;SDS011;9765;52.354;20.884;2022-09-24T11:52:21;5.73;;;2.67;;
19262;SDS011;9765;52.354;20.884;2022-09-24T11:54:55;3.50;;;1.90;;
19262;SDS011;9765;52.354;20.884;2022-09-24T11:57:28;5.33;;;1.80;;
19262;SDS011;9765;52.354;20.884;2022-09-24T12:00:03;3.03;;;1.70;;
19262;SDS011;9765;52.354;20.884;2022-09-24T12:02:33;3.53;;;1.57;;
19262;SDS011;9765;52.354;20.884;2022-09-24T12:05:04;10.07;;;1.80;;
19262;SDS011;9765;52.354;20.884;2022-09-24T12:07:35;31.57;;;2.87;;
19262;SDS011;9765;52.354;20.884;2022-09-24T12:10:17;14.87;;;1.80;;
19262;SDS011;9765;52.354;20.884;2022-09-24T12:12:50;2.37;;;1.40;;
19262;SDS011;9765;52.354;20.884;2022-09-24T12:15:26;3.43;;;1.60;;
19262;SDS011;9765;52.354;20.884;2022-09-24T12:18:10;7.87;;;1.70;;
19262;SDS011;9765;52.354;20.884;2022-09-24T12:20:44;2.13;;;1.30;;
19262;SDS011;9765;52.354;20.884;2022-09-24T12:23:15;1.97;;;1.20;;
19262;SDS011;9765;52.354;20.884;2022-09-24T12:25:54;2.87;;;1.43;;
19262;SDS011;9765;52.354;20.884;2022-09-24T12:28:24;3.37;;;1.33;;
19262;SDS011;9765;52.354;20.884;2022-09-24T12:31:20;3.73;;;1.30;;
19262;SDS011;9765;52.354;20.884;2022-09-24T12:34:13;2.77;;;1.60;;
19262;SDS011;9765;52.354;20.884;2022-09-24T12:36:50;2.43;;;1.50;;
19262;SDS011;9765;52.354;20.884;2022-09-24T12:39:22;2.43;;;1.40;;
19262;SDS011;9765;52.354;20.884;2022-09-24T12:41:56;3.03;;;1.63;;
19262;SDS011;9765;52.354;20.884;2022-09-24T12:44:29;2.90;;;1.40;;
19262;SDS011;9765;52.354;20.884;2022-09-24T12:47:02;7.00;;;1.50;;
19262;SDS011;9765;52.354;20.884;2022-09-24T12:49:31;2.20;;;1.20;;
19262;SDS011;9765;52.354;20.884;2022-09-24T12:52:00;22.23;;;2.23;;
19262;SDS011;9765;52.354;20.884;2022-09-24T12:54:29;4.80;;;1.40;;
19262;SDS011;9765;52.354;20.884;2022-09-24T12:57:06;3.40;;;1.57;;
19262;SDS011;9765;52.354;20.884;2022-09-24T12:59:49;3.50;;;1.57;;
19262;SDS011;9765;52.354;20.884;2022-09-24T13:02:19;3.43;;;1.50;;
19262;SDS011;9765;52.354;20.884;2022-09-24T13:05:03;8.37;;;1.50;;
19262;SDS011;9765;52.354;20.884;2022-09-24T13:07:40;21.50;;;2.03;;
19262;SDS011;9765;52.354;20.884;2022-09-24T13:10:19;3.50;;;1.70;;
19262;SDS011;9765;52.354;20.884;2022-09-24T13:12:50;4.13;;;1.60;;
19262;SDS011;9765;52.354;20.884;2022-09-24T13:15:33;1.70;;;1.30;;
19262;SDS011;9765;52.354;20.884;2022-09-24T13:18:03;5.47;;;1.50;;
19262;SDS011;9765;52.354;20.884;2022-09-24T13:20:40;4.10;;;1.33;;
19262;SDS011;9765;52.354;20.884;2022-09-24T13:23:12;27.37;;;1.90;;
19262;SDS011;9765;52.354;20.884;2022-09-24T13:25:56;2.40;;;1.17;;
19262;SDS011;9765;52.354;20.884;2022-09-24T13:28:26;2.53;;;1.50;;
19262;SDS011;9765;52.354;20.884;2022-09-24T13:30:54;3.87;;;1.23;;
19262;SDS011;9765;52.354;20.884;2022-09-24T13:33:27;2.13;;;1.33;;
19262;SDS011;9765;52.354;20.884;2022-09-24T13:36:01;3.10;;;1.40;;
19262;SDS011;9765;52.354;20.884;2022-09-24T13:38:36;2.93;;;1.50;;
19262;SDS011;9765;52.354;20.884;2022-09-24T13:41:11;2.33;;;1.37;;
19262;SDS011;9765;52.354;20.884;2022-09-24T13:43:50;2.63;;;1.30;;
19262;SDS011;9765;52.354;20.884;2022-09-24T13:46:21;3.17;;;1.50;;
19262;SDS011;9765;52.354;20.884;2022-09-24T13:48:50;2.50;;;1.40;;
19262;SDS011;9765;52.354;20.884;2022-09-24T13:51:20;2.30;;;1.33;;
19262;SDS011;9765;52.354;20.884;2022-09-24T13:53:51;4.00;;;1.50;;
19262;SDS011;9765;52.354;20.884;2022-09-24T13:56:24;3.97;;;1.57;;
19262;SDS011;9765;52.354;20.884;2022-09-24T13:58:52;2.83;;;1.60;;
19262;SDS011;9765;52.354;20.884;2022-09-24T14:01:30;7.07;;;1.47;;
19262;SDS011;9765;52.354;20.884;2022-09-24T14:04:04;4.20;;;1.50;;
19262;SDS011;9765;52.354;20.884;2022-09-24T14:06:39;5.40;;;1.40;;
19262;SDS011;9765;52.354;20.884;2022-09-24T14:09:13;3.07;;;1.70;;
19262;SDS011;9765;52.354;20.884;2022-09-24T14:11:47;2.80;;;1.40;;
19262;SDS011;9765;52.354;20.884;2022-09-24T14:14:16;5.13;;;1.70;;
19262;SDS011;9765;52.354;20.884;2022-09-24T14:16:45;4.60;;;1.53;;
19262;SDS011;9765;52.354;20.884;2022-09-24T14:19:12;3.17;;;1.80;;
19262;SDS011;9765;52.354;20.884;2022-09-24T14:21:40;4.40;;;1.60;;
19262;SDS011;9765;52.354;20.884;2022-09-24T14:24:12;9.37;;;1.77;;
19262;SDS011;9765;52.354;20.884;2022-09-24T14:26:44;3.37;;;1.77;;
19262;SDS011;9765;52.354;20.884;2022-09-24T14:29:18;2.90;;;1.83;;
19262;SDS011;9765;52.354;20.884;2022-09-24T14:31:51;6.33;;;1.93;;
19262;SDS011;9765;52.354;20.884;2022-09-24T14:34:22;3.17;;;1.80;;
19262;SDS011;9765;52.354;20.884;2022-09-24T14:36:52;3.27;;;1.67;;
19262;SDS011;9765;52.354;20.884;2022-09-24T14:39:23;27.90;;;2.53;;
19262;SDS011;9765;52.354;20.884;2022-09-24T14:41:52;3.40;;;1.83;;
19262;SDS011;9765;52.354;20.884;2022-09-24T14:44:23;4.10;;;1.70;;
19262;SDS011;9765;52.354;20.884;2022-09-24T14:46:52;8.03;;;1.90;;
19262;SDS011;9765;52.354;20.884;2022-09-24T14:49:22;4.50;;;2.00;;
19262;SDS011;9765;52.354;20.884;2022-09-24T14:51:52;14.57;;;2.37;;
19262;SDS011;9765;52.354;20.884;2022-09-24T14:54:23;3.70;;;1.90;;
19262;SDS011;9765;52.354;20.884;2022-09-24T14:56:55;7.17;;;2.10;;
19262;SDS011;9765;52.354;20.884;2022-09-24T14:59:36;3.17;;;1.93;;
19262;SDS011;9765;52.354;20.884;2022-09-24T15:02:10;3.60;;;1.73;;
19262;SDS011;9765;52.354;20.884;2022-09-24T15:04:42;7.17;;;2.80;;
19262;SDS011;9765;52.354;20.884;2022-09-24T15:07:13;48.27;;;4.90;;
19262;SDS011;9765;52.354;20.884;2022-09-24T15:09:42;5.23;;;2.07;;
19262;SDS011;9765;52.354;20.884;2022-09-24T15:12:13;3.43;;;1.97;;
19262;SDS011;9765;52.354;20.884;2022-09-24T15:14:53;6.47;;;1.87;;
19262;SDS011;9765;52.354;20.884;2022-09-24T15:17:27;14.03;;;2.40;;
19262;SDS011;9765;52.354;20.884;2022-09-24T15:19:56;5.70;;;2.10;;
19262;SDS011;9765;52.354;20.884;2022-09-24T15:22:23;4.10;;;1.70;;
19262;SDS011;9765;52.354;20.884;2022-09-24T15:24:51;12.00;;;2.50;;
19262;SDS011;9765;52.354;20.884;2022-09-24T15:27:18;5.10;;;1.70;;
19262;SDS011;9765;52.354;20.884;2022-09-24T15:29:49;3.70;;;1.73;;
19262;SDS011;9765;52.354;20.884;2022-09-24T15:32:19;3.47;;;1.70;;
19262;SDS011;9765;52.354;20.884;2022-09-24T15:34:46;4.67;;;1.80;;
19262;SDS011;9765;52.354;20.884;2022-09-24T15:37:14;4.00;;;1.97;;
19262;SDS011;9765;52.354;20.884;2022-09-24T15:39:43;7.17;;;2.17;;
19262;SDS011;9765;52.354;20.884;2022-09-24T15:42:14;7.90;;;2.83;;
19262;SDS011;9765;52.354;20.884;2022-09-24T15:44:41;7.90;;;3.70;;
19262;SDS011;9765;52.354;20.884;2022-09-24T15:47:10;8.97;;;3.60;;
19262;SDS011;9765;52.354;20.884;2022-09-24T15:49:38;22.70;;;4.20;;
19262;SDS011;9765;52.354;20.884;2022-09-24T15:52:08;20.20;;;3.97;;
19262;SDS011;9765;52.354;20.884;2022-09-24T15:54:39;13.60;;;3.70;;
19262;SDS011;9765;52.354;20.884;2022-09-24T15:57:06;15.07;;;4.50;;
19262;SDS011;9765;52.354;20.884;2022-09-24T15:59:38;14.80;;;4.87;;
19262;SDS011;9765;52.354;20.884;2022-09-24T16:02:12;15.13;;;4.50;;
19262;SDS011;9765;52.354;20.884;2022-09-24T16:04:43;11.90;;;3.83;;
19262;SDS011;9765;52.354;20.884;2022-09-24T16:07:10;71.90;;;6.20;;
